Time;durP1;ratioP1;P1;durP2;ratioP2;P2;SDS_P1;SDS_P2;PMS_P1;PMS_P2;Temp;Humidity;BMP_temperature;BMP_pressure;BME280_temperature;BME280_humidity;BME280_pressure;Samples;Min_cycle;Max_cycle;Signal;HPM_P1;HPM_P2
2022/04/24 00:00:58;;;;;;;;;;;20.00;47.50;;;;;;4988648;28;19917;-71
2022/04/24 00:03:23;;;;;;;;;;;20.00;47.60;;;;;;4988838;28;19958;-75
2022/04/24 00:05:49;;;;;;;;;;;20.00;47.50;;;;;;4989971;28;19917;-77
2022/04/24 00:08:15;;;;;;;;;;;20.10;47.80;;;;;;4989513;28;19921;-81
2022/04/24 00:10:40;;;;;;;;;;;20.00;46.20;;;;;;4989710;28;19917;-75
2022/04/24 00:13:06;;;;;;;;;;;19.60;47.70;;;;;;4989969;28;19917;-77
2022/04/24 00:15:31;;;;;;;;;;;19.80;47.70;;;;;;4988431;28;19920;-76
2022/04/24 00:17:57;;;;;;;;;;;19.90;47.60;;;;;;4989587;28;20357;-76
2022/04/24 00:20:22;;;;;;;;;;;20.00;47.30;;;;;;4989659;28;19918;-77
2022/04/24 00:22:48;;;;;;;;;;;20.10;47.30;;;;;;4990033;28;20001;-79
2022/04/24 00:25:13;;;;;;;;;;;20.10;47.20;;;;;;4990199;28;19992;-77
2022/04/24 00:27:39;;;;;;;;;;;20.00;47.10;;;;;;4988770;28;19909;-77
2022/04/24 00:30:05;;;;;;;;;;;20.10;47.20;;;;;;4989664;28;20289;-78
2022/04/24 00:32:30;;;;;;;;;;;20.00;47.30;;;;;;4989793;28;20392;-80
2022/04/24 00:34:55;;;;;;;;;;;20.10;47.40;;;;;;4989698;28;19957;-77
2022/04/24 00:37:21;;;;;;;;;;;20.00;47.30;;;;;;4989647;28;20009;-77
2022/04/24 00:39:46;;;;;;;;;;;20.10;47.40;;;;;;4989271;28;19918;-78
2022/04/24 00:42:12;;;;;;;;;;;20.00;47.30;;;;;;4988303;28;20367;-74
2022/04/24 00:44:37;;;;;;;;;;;20.00;47.50;;;;;;4989464;28;19963;-75
2022/04/24 00:47:09;;;;;;;;;;;20.00;47.50;;;;;;4989234;28;20000;-75
2022/04/24 00:49:34;;;;;;;;;;;20.00;47.40;;;;;;4988954;28;19964;-75
2022/04/24 00:52:00;;;;;;;;;;;20.10;47.70;;;;;;4989425;28;19910;-75
2022/04/24 00:54:25;;;;;;;;;;;20.00;47.60;;;;;;4989329;28;19910;-75
2022/04/24 00:56:51;;;;;;;;;;;20.00;47.50;;;;;;4989149;28;19970;-79
2022/04/24 00:59:16;;;;;;;;;;;20.00;47.60;;;;;;4989771;28;20411;-76
2022/04/24 01:01:42;;;;;;;;;;;20.00;47.70;;;;;;4992784;28;19941;-76
2022/04/24 01:04:08;;;;;;;;;;;20.00;47.80;;;;;;4992565;28;20273;-76
2022/04/24 01:06:36;;;;;;;;;;;20.00;47.70;;;;;;4992539;28;20369;-75
2022/04/24 01:09:09;;;;;;;;;;;20.00;47.80;;;;;;4990969;28;19960;-75
2022/04/24 01:11:34;;;;;;;;;;;20.00;47.70;;;;;;4992410;28;20004;-75
2022/04/24 01:14:00;;;;;;;;;;;20.00;47.70;;;;;;4992424;28;19945;-76
2022/04/24 01:16:25;;;;;;;;;;;20.00;47.70;;;;;;4992319;28;20281;-78
2022/04/24 01:18:51;;;;;;;;;;;19.90;47.60;;;;;;4991949;28;19925;-76
2022/04/24 01:21:16;;;;;;;;;;;20.00;47.70;;;;;;4991096;28;20503;-75
2022/04/24 01:23:43;;;;;;;;;;;19.90;47.60;;;;;;4992447;28;19909;-77
2022/04/24 01:26:08;;;;;;;;;;;20.00;47.60;;;;;;4990926;28;19910;-75
2022/04/24 01:28:34;;;;;;;;;;;20.00;47.70;;;;;;4992043;28;20446;-76
2022/04/24 01:30:59;;;;;;;;;;;20.00;47.70;;;;;;4990908;28;19917;-76
2022/04/24 01:33:26;;;;;;;;;;;20.00;47.80;;;;;;4992284;28;20440;-76
2022/04/24 01:35:51;;;;;;;;;;;19.90;47.80;;;;;;4992057;28;19913;-76
2022/04/24 01:38:17;;;;;;;;;;;19.90;47.90;;;;;;4991010;28;20297;-76
2022/04/24 01:40:42;;;;;;;;;;;19.90;48.00;;;;;;4991711;28;20055;-76
2022/04/24 01:43:08;;;;;;;;;;;19.90;48.40;;;;;;4991973;28;20038;-75
2022/04/24 01:45:33;;;;;;;;;;;19.80;48.50;;;;;;4990693;28;19916;-76
2022/04/24 01:47:59;;;;;;;;;;;19.90;48.80;;;;;;4991988;28;20339;-76
2022/04/24 01:50:24;;;;;;;;;;;19.80;48.60;;;;;;4990206;28;19917;-76
2022/04/24 01:52:50;;;;;;;;;;;19.80;48.70;;;;;;4991925;28;20007;-76
2022/04/24 01:55:15;;;;;;;;;;;19.90;48.80;;;;;;4991620;28;20388;-76
2022/04/24 01:57:41;;;;;;;;;;;19.80;48.70;;;;;;4991807;28;19953;-76
2022/04/24 02:00:06;;;;;;;;;;;19.80;48.70;;;;;;4991247;28;20300;-76
2022/04/24 02:02:32;;;;;;;;;;;19.80;48.80;;;;;;4991713;28;19917;-75
2022/04/24 02:04:57;;;;;;;;;;;19.80;48.80;;;;;;4991684;28;19910;-74
2022/04/24 02:07:23;;;;;;;;;;;19.80;49.10;;;;;;4991679;28;19914;-77
2022/04/24 02:09:48;;;;;;;;;;;19.80;49.00;;;;;;4991208;28;20384;-75
2022/04/24 02:12:14;;;;;;;;;;;20.00;48.80;;;;;;4991572;28;19910;-76
2022/04/24 02:14:39;;;;;;;;;;;19.90;48.60;;;;;;4990332;28;19910;-76
2022/04/24 02:17:05;;;;;;;;;;;19.90;48.70;;;;;;4991339;28;19983;-75
2022/04/24 02:19:31;;;;;;;;;;;20.00;48.70;;;;;;4990277;28;19925;-75
2022/04/24 02:21:56;;;;;;;;;;;19.90;48.80;;;;;;4989121;28;19909;-76
2022/04/24 02:24:21;;;;;;;;;;;19.90;48.80;;;;;;4990517;28;19917;-75
2022/04/24 02:26:47;;;;;;;;;;;20.00;48.80;;;;;;4989001;28;19913;-76
2022/04/24 02:29:12;;;;;;;;;;;19.90;48.70;;;;;;4988752;28;19938;-76
2022/04/24 02:31:38;;;;;;;;;;;19.90;48.70;;;;;;4989116;28;20375;-75
2022/04/24 02:34:03;;;;;;;;;;;19.90;49.00;;;;;;4989046;28;19910;-76
2022/04/24 02:36:29;;;;;;;;;;;19.80;49.00;;;;;;4990190;28;19920;-75
2022/04/24 02:38:54;;;;;;;;;;;19.80;49.00;;;;;;4989863;28;20289;-75
2022/04/24 02:41:20;;;;;;;;;;;19.80;49.00;;;;;;4988880;28;19910;-75
2022/04/24 02:43:45;;;;;;;;;;;19.80;48.90;;;;;;4990191;28;19909;-75
2022/04/24 02:46:11;;;;;;;;;;;19.80;49.10;;;;;;4988833;28;19910;-76
2022/04/24 02:48:37;;;;;;;;;;;19.80;49.10;;;;;;4989877;28;19909;-74
2022/04/24 02:51:03;;;;;;;;;;;19.80;49.10;;;;;;4990019;28;20391;-75
2022/04/24 02:53:28;;;;;;;;;;;19.80;49.10;;;;;;4990032;28;19938;-76
2022/04/24 02:55:54;;;;;;;;;;;19.80;49.10;;;;;;4989883;28;19960;-76
2022/04/24 02:58:21;;;;;;;;;;;19.80;49.40;;;;;;4989964;28;19925;-76
2022/04/24 03:00:50;;;;;;;;;;;19.90;49.40;;;;;;4989781;28;20392;-76
2022/04/24 03:03:18;;;;;;;;;;;19.80;49.60;;;;;;4989970;28;19910;-76
2022/04/24 03:05:48;;;;;;;;;;;19.90;49.60;;;;;;4989838;28;19914;-75
2022/04/24 03:08:14;;;;;;;;;;;19.80;49.70;;;;;;4989990;28;19910;-75
2022/04/24 03:10:40;;;;;;;;;;;19.80;49.70;;;;;;4989428;28;19917;-75
2022/04/24 03:13:05;;;;;;;;;;;19.70;50.00;;;;;;4988522;28;19910;-76
2022/04/24 03:15:31;;;;;;;;;;;19.80;49.80;;;;;;4989705;28;19914;-76
2022/04/24 03:17:56;;;;;;;;;;;19.80;49.70;;;;;;4960714;28;800896;-75
2022/04/24 03:20:25;;;;;;;;;;;19.80;49.60;;;;;;4989070;28;19910;-75
2022/04/24 03:22:50;;;;;;;;;;;19.80;49.60;;;;;;4989971;28;19920;-76
2022/04/24 03:25:16;;;;;;;;;;;19.90;49.80;;;;;;4990528;28;19906;-76
2022/04/24 03:27:42;;;;;;;;;;;19.80;49.70;;;;;;4989280;28;19910;-76
2022/04/24 03:30:09;;;;;;;;;;;19.80;49.50;;;;;;4990067;28;19914;-76
2022/04/24 03:32:35;;;;;;;;;;;19.80;49.40;;;;;;4990478;28;19910;-75
2022/04/24 03:35:01;;;;;;;;;;;19.90;49.50;;;;;;4990312;28;20363;-76
2022/04/24 03:37:26;;;;;;;;;;;19.80;49.50;;;;;;4990267;28;20440;-76
2022/04/24 03:39:52;;;;;;;;;;;19.80;49.60;;;;;;4989923;28;19964;-76
2022/04/24 03:42:17;;;;;;;;;;;19.80;49.40;;;;;;4990288;28;19997;-75
2022/04/24 03:44:43;;;;;;;;;;;19.80;49.30;;;;;;4989065;28;19914;-75
2022/04/24 03:47:08;;;;;;;;;;;19.90;49.30;;;;;;4990120;28;19910;-75
2022/04/24 03:49:35;;;;;;;;;;;19.80;49.30;;;;;;4989762;28;20411;-75
2022/04/24 03:52:00;;;;;;;;;;;19.80;50.00;;;;;;4990104;28;19954;-74
2022/04/24 03:54:25;;;;;;;;;;;19.80;49.30;;;;;;4990138;28;19909;-76
2022/04/24 03:56:51;;;;;;;;;;;19.80;49.30;;;;;;4989850;28;19914;-75
2022/04/24 03:59:16;;;;;;;;;;;19.80;49.30;;;;;;4989581;28;19921;-75
2022/04/24 04:01:42;;;;;;;;;;;19.80;49.10;;;;;;4990069;28;20028;-75
2022/04/24 04:04:07;;;;;;;;;;;19.90;49.10;;;;;;4990082;28;19910;-74
2022/04/24 04:06:33;;;;;;;;;;;19.80;48.90;;;;;;4989860;28;19914;-74
2022/04/24 04:08:58;;;;;;;;;;;19.80;49.00;;;;;;4989610;28;19993;-75
2022/04/24 04:11:26;;;;;;;;;;;19.80;49.00;;;;;;4989849;28;20413;-76
2022/04/24 04:13:51;;;;;;;;;;;19.80;48.80;;;;;;4989748;28;20385;-74
2022/04/24 04:16:17;;;;;;;;;;;19.80;48.90;;;;;;4989627;28;19917;-74
2022/04/24 04:18:42;;;;;;;;;;;19.80;48.40;;;;;;4989484;28;19918;-74
2022/04/24 04:21:08;;;;;;;;;;;19.80;48.50;;;;;;4989533;28;19940;-75
2022/04/24 04:23:33;;;;;;;;;;;19.70;48.30;;;;;;4989678;28;20364;-74
2022/04/24 04:25:59;;;;;;;;;;;19.70;48.50;;;;;;4989656;28;19910;-75
2022/04/24 04:28:24;;;;;;;;;;;19.80;48.20;;;;;;4989477;28;19917;-75
2022/04/24 04:30:50;;;;;;;;;;;19.70;48.50;;;;;;4989527;28;19968;-74
2022/04/24 04:33:15;;;;;;;;;;;19.80;48.30;;;;;;4990056;28;20012;-75
2022/04/24 04:35:41;;;;;;;;;;;19.70;47.80;;;;;;4992913;28;19914;-76
2022/04/24 04:38:06;;;;;;;;;;;19.70;48.20;;;;;;4993048;28;20126;-75
2022/04/24 04:40:32;;;;;;;;;;;19.70;47.70;;;;;;4992626;28;20341;-75
2022/04/24 04:42:57;;;;;;;;;;;19.60;47.90;;;;;;4993277;28;19906;-75
2022/04/24 04:45:24;;;;;;;;;;;19.60;48.30;;;;;;4992913;28;19910;-75
2022/04/24 04:47:50;;;;;;;;;;;19.60;48.30;;;;;;4993004;28;19945;-75
2022/04/24 04:50:16;;;;;;;;;;;19.60;47.90;;;;;;4992602;28;19941;-75
2022/04/24 04:52:41;;;;;;;;;;;19.60;48.20;;;;;;5017226;22;20281;-77
2022/04/24 04:55:07;;;;;;;;;;;19.70;48.20;;;;;;5053714;28;20402;-76
2022/04/24 04:57:32;;;;;;;;;;;19.60;48.10;;;;;;5054798;28;19909;-76
2022/04/24 04:59:58;;;;;;;;;;;19.60;48.00;;;;;;5055499;28;19915;-76
2022/04/24 05:02:23;;;;;;;;;;;19.50;48.20;;;;;;5055750;28;19909;-78
2022/04/24 05:04:49;;;;;;;;;;;19.70;48.20;;;;;;5055643;28;19927;-76
2022/04/24 05:07:14;;;;;;;;;;;19.70;48.00;;;;;;5054458;28;19909;-76
2022/04/24 05:09:40;;;;;;;;;;;19.50;48.30;;;;;;5055287;28;19909;-77
2022/04/24 05:12:07;;;;;;;;;;;19.50;48.20;;;;;;5054234;28;19958;-76
2022/04/24 05:14:32;;;;;;;;;;;19.50;48.30;;;;;;5055236;28;20443;-76
2022/04/24 05:16:58;;;;;;;;;;;19.50;48.30;;;;;;5052751;28;20016;-78
2022/04/24 05:19:24;;;;;;;;;;;19.50;48.30;;;;;;5051237;28;19912;-76
2022/04/24 05:21:50;;;;;;;;;;;19.50;47.80;;;;;;5055185;28;19908;-76
2022/04/24 05:24:15;;;;;;;;;;;19.50;48.20;;;;;;5057413;28;20334;-76
2022/04/24 05:26:40;;;;;;;;;;;19.60;48.20;;;;;;5054163;28;19909;-76
2022/04/24 05:29:07;;;;;;;;;;;19.50;48.00;;;;;;5074728;28;20402;-77
2022/04/24 05:31:32;;;;;;;;;;;19.50;48.40;;;;;;5075155;28;20030;-79
2022/04/24 05:33:58;;;;;;;;;;;19.50;48.20;;;;;;5074893;28;20019;-76
2022/04/24 05:36:23;;;;;;;;;;;19.50;48.30;;;;;;5070887;28;20011;-77
2022/04/24 05:38:49;;;;;;;;;;;19.50;48.30;;;;;;5054689;28;19912;-77
2022/04/24 05:41:14;;;;;;;;;;;19.50;48.40;;;;;;5055059;28;19970;-76
2022/04/24 05:43:40;;;;;;;;;;;19.50;48.60;;;;;;5054942;28;19909;-77
2022/04/24 05:46:05;;;;;;;;;;;19.50;48.30;;;;;;5052678;28;19909;-76
2022/04/24 05:48:31;;;;;;;;;;;19.40;48.10;;;;;;5052378;28;20372;-78
2022/04/24 05:50:57;;;;;;;;;;;19.50;48.50;;;;;;5055393;28;19913;-80
2022/04/24 05:53:23;;;;;;;;;;;19.50;48.20;;;;;;5054912;28;19916;-76
2022/04/24 05:55:48;;;;;;;;;;;19.50;48.60;;;;;;5054471;28;20414;-75
2022/04/24 05:58:14;;;;;;;;;;;19.50;48.80;;;;;;5053341;28;19909;-76
2022/04/24 06:00:39;;;;;;;;;;;19.50;49.10;;;;;;5054434;28;20004;-77
2022/04/24 06:03:04;;;;;;;;;;;19.60;49.10;;;;;;5054189;28;19909;-76
2022/04/24 06:05:30;;;;;;;;;;;19.50;49.40;;;;;;5052992;28;19958;-76
2022/04/24 06:07:55;;;;;;;;;;;19.60;49.60;;;;;;5069638;28;20395;-77
2022/04/24 06:10:21;;;;;;;;;;;19.50;49.40;;;;;;5053932;28;19909;-75
2022/04/24 06:12:47;;;;;;;;;;;19.50;49.30;;;;;;5052661;28;19967;-77
2022/04/24 06:15:15;;;;;;;;;;;19.50;49.30;;;;;;5054197;28;19909;-77
2022/04/24 06:17:46;;;;;;;;;;;19.50;49.30;;;;;;5054646;28;19944;-77
2022/04/24 06:20:13;;;;;;;;;;;19.50;49.20;;;;;;5053651;28;19909;-78
2022/04/24 06:22:45;;;;;;;;;;;19.40;49.00;;;;;;5052357;28;19920;-77
2022/04/24 06:25:15;;;;;;;;;;;19.50;49.00;;;;;;5053315;28;20007;-78
2022/04/24 06:27:41;;;;;;;;;;;19.50;49.40;;;;;;5053114;28;19962;-76
2022/04/24 06:30:07;;;;;;;;;;;19.50;49.30;;;;;;5053608;28;20033;-81
2022/04/24 06:32:38;;;;;;;;;;;19.50;49.30;;;;;;5052732;28;19923;-79
2022/04/24 06:35:04;;;;;;;;;;;19.60;49.10;;;;;;5032301;28;19920;-78
2022/04/24 06:37:29;;;;;;;;;;;19.50;49.40;;;;;;5031297;28;19909;-75
2022/04/24 06:39:55;;;;;;;;;;;19.60;49.40;;;;;;5035083;28;19916;-76
2022/04/24 06:42:21;;;;;;;;;;;19.50;49.50;;;;;;5049173;28;20283;-76
2022/04/24 06:44:47;;;;;;;;;;;19.50;49.30;;;;;;5051672;28;19908;-76
2022/04/24 06:47:12;;;;;;;;;;;19.50;49.20;;;;;;5053009;28;19923;-79
2022/04/24 06:49:38;;;;;;;;;;;19.50;49.30;;;;;;5040828;28;19920;-77
2022/04/24 06:52:04;;;;;;;;;;;19.50;49.30;;;;;;5043863;28;19915;-76
2022/04/24 06:54:29;;;;;;;;;;;19.50;49.30;;;;;;5052984;28;19963;-76
2022/04/24 06:56:55;;;;;;;;;;;19.60;49.40;;;;;;5050265;28;19920;-76
2022/04/24 06:59:20;;;;;;;;;;;19.50;49.30;;;;;;5051098;28;19913;-75
2022/04/24 07:01:46;;;;;;;;;;;19.50;49.20;;;;;;5051833;28;19963;-74
2022/04/24 07:04:11;;;;;;;;;;;19.50;49.30;;;;;;5051688;28;19919;-74
2022/04/24 07:06:37;;;;;;;;;;;19.50;49.20;;;;;;5046693;28;20010;-76
2022/04/24 07:09:02;;;;;;;;;;;19.60;49.30;;;;;;5047910;28;19920;-77
2022/04/24 07:11:28;;;;;;;;;;;19.60;49.00;;;;;;5047261;28;19916;-76
2022/04/24 07:13:53;;;;;;;;;;;19.60;49.00;;;;;;5052362;28;20380;-79
2022/04/24 07:16:18;;;;;;;;;;;19.50;48.80;;;;;;5044604;28;19917;-78
2022/04/24 07:18:44;;;;;;;;;;;19.50;48.50;;;;;;5052582;28;19915;-77
2022/04/24 07:21:09;;;;;;;;;;;19.60;48.30;;;;;;5049190;28;19954;-78
2022/04/24 07:23:37;;;;;;;;;;;19.80;48.10;;;;;;5063172;28;20403;-76
2022/04/24 07:26:02;;;;;;;;;;;19.70;48.00;;;;;;5053133;28;19913;-75
2022/04/24 07:28:30;;;;;;;;;;;19.70;48.00;;;;;;5050348;28;20041;-76
2022/04/24 07:30:55;;;;;;;;;;;19.70;48.00;;;;;;5038595;28;20312;-77
2022/04/24 07:33:21;;;;;;;;;;;19.60;47.90;;;;;;5052368;28;19913;-74
2022/04/24 07:35:47;;;;;;;;;;;19.60;47.80;;;;;;5046586;28;19920;-76
2022/04/24 07:38:12;;;;;;;;;;;19.70;47.90;;;;;;5051794;28;19919;-78
2022/04/24 07:40:39;;;;;;;;;;;19.70;47.60;;;;;;5051703;28;19913;-78
2022/04/24 07:43:05;;;;;;;;;;;19.70;47.60;;;;;;5038097;28;19910;-77
2022/04/24 07:45:38;;;;;;;;;;;19.60;47.60;;;;;;5045615;28;20407;-76
2022/04/24 07:48:05;;;;;;;;;;;19.60;47.80;;;;;;5049303;28;20384;-76
2022/04/24 07:50:32;;;;;;;;;;;19.70;47.70;;;;;;5050753;28;19913;-76
2022/04/24 07:52:58;;;;;;;;;;;19.70;47.90;;;;;;5052123;28;19921;-77
2022/04/24 07:55:24;;;;;;;;;;;19.70;48.10;;;;;;5051451;28;20307;-75
2022/04/24 07:57:51;;;;;;;;;;;19.70;48.00;;;;;;5049576;28;19924;-75
2022/04/24 08:00:17;;;;;;;;;;;19.80;48.00;;;;;;5051185;28;19913;-75
2022/04/24 08:02:57;;;;;;;;;;;19.80;47.90;;;;;;5049047;28;19920;-76
2022/04/24 08:05:26;;;;;;;;;;;19.80;47.90;;;;;;5046980;28;19913;-76
2022/04/24 08:07:52;;;;;;;;;;;19.80;48.00;;;;;;5045591;28;19913;-78
2022/04/24 08:10:18;;;;;;;;;;;19.70;48.20;;;;;;5050381;28;19956;-76
2022/04/24 08:12:44;;;;;;;;;;;19.70;48.60;;;;;;5051146;28;20107;-79
2022/04/24 08:15:10;;;;;;;;;;;19.70;48.90;;;;;;5046342;28;20395;-79
2022/04/24 08:17:35;;;;;;;;;;;19.70;48.60;;;;;;5049602;28;19943;-76
2022/04/24 08:20:01;;;;;;;;;;;19.80;48.40;;;;;;5058596;28;19913;-78
2022/04/24 08:22:35;;;;;;;;;;;19.90;48.40;;;;;;5058797;28;20523;-78
2022/04/24 08:25:00;;;;;;;;;;;19.80;47.70;;;;;;5052656;28;19909;-77
2022/04/24 08:27:25;;;;;;;;;;;19.80;47.20;;;;;;5052751;28;19963;-81
2022/04/24 08:29:51;;;;;;;;;;;19.70;47.00;;;;;;5053053;28;19913;-79
2022/04/24 08:32:20;;;;;;;;;;;19.70;46.60;;;;;;5054395;28;19913;-77
2022/04/24 08:34:45;;;;;;;;;;;19.60;46.50;;;;;;5054216;28;20249;-79
2022/04/24 08:37:11;;;;;;;;;;;19.60;46.90;;;;;;5050522;28;19917;-77
2022/04/24 08:39:36;;;;;;;;;;;19.70;47.60;;;;;;5053103;28;20330;-77
2022/04/24 08:42:02;;;;;;;;;;;19.60;47.50;;;;;;5052296;28;20401;-78
2022/04/24 08:44:29;;;;;;;;;;;19.60;47.30;;;;;;5053688;28;19913;-77
2022/04/24 08:46:55;;;;;;;;;;;19.70;47.30;;;;;;5052052;28;19912;-77
2022/04/24 08:49:22;;;;;;;;;;;19.60;47.00;;;;;;5051468;28;19909;-80
2022/04/24 08:51:48;;;;;;;;;;;19.70;47.10;;;;;;5051710;28;20062;-78
2022/04/24 08:54:15;;;;;;;;;;;19.70;47.00;;;;;;5052922;28;19963;-83
2022/04/24 08:56:40;;;;;;;;;;;19.60;46.80;;;;;;5061682;28;20371;-80
2022/04/24 08:59:06;;;;;;;;;;;19.60;46.80;;;;;;5068492;28;19999;-80
2022/04/24 09:01:32;;;;;;;;;;;19.60;46.70;;;;;;5051134;28;20434;-78
2022/04/24 09:03:57;;;;;;;;;;;19.60;46.80;;;;;;5071679;28;20282;-80
2022/04/24 09:06:23;;;;;;;;;;;19.60;46.60;;;;;;5072019;28;20290;-79
2022/04/24 09:08:49;;;;;;;;;;;19.70;46.60;;;;;;5071621;28;19937;-80
2022/04/24 09:11:16;;;;;;;;;;;19.60;46.40;;;;;;5071812;28;20011;-81
2022/04/24 09:16:36;;;;;;;;;;;19.70;46.30;;;;;;5070088;28;20366;-77
2022/04/24 09:19:02;;;;;;;;;;;19.70;46.20;;;;;;5051601;28;19909;-78
2022/04/24 09:21:28;;;;;;;;;;;19.70;46.20;;;;;;5056253;28;19908;-78
2022/04/24 09:23:57;;;;;;;;;;;19.60;46.00;;;;;;5055691;28;19909;-78
2022/04/24 09:26:23;;;;;;;;;;;19.60;46.10;;;;;;5055099;28;19912;-79
2022/04/24 09:28:48;;;;;;;;;;;19.60;46.10;;;;;;5054741;28;19913;-78
2022/04/24 09:31:14;;;;;;;;;;;19.70;46.00;;;;;;5065377;28;19991;-78
2022/04/24 09:33:41;;;;;;;;;;;19.60;45.90;;;;;;5054849;28;19924;-78
2022/04/24 09:36:07;;;;;;;;;;;19.70;46.00;;;;;;5053633;28;20354;-78
2022/04/24 09:38:43;;;;;;;;;;;19.70;46.00;;;;;;5053881;28;19939;-77
2022/04/24 09:41:17;;;;;;;;;;;19.60;45.90;;;;;;5052291;28;19916;-77
2022/04/24 09:43:43;;;;;;;;;;;19.60;45.80;;;;;;5056181;28;20004;-78
2022/04/24 09:46:08;;;;;;;;;;;19.60;45.80;;;;;;5051930;28;20374;-77
2022/04/24 09:48:34;;;;;;;;;;;19.60;45.80;;;;;;5052824;28;20003;-78
2022/04/24 09:50:59;;;;;;;;;;;19.60;45.70;;;;;;5052157;28;20007;-79
2022/04/24 09:53:25;;;;;;;;;;;19.60;45.80;;;;;;5052705;28;19920;-78
2022/04/24 09:55:51;;;;;;;;;;;19.50;45.70;;;;;;5054162;28;19913;-77
2022/04/24 09:58:16;;;;;;;;;;;19.60;45.80;;;;;;5059775;28;19942;-78
2022/04/24 10:00:42;;;;;;;;;;;19.60;45.60;;;;;;5073853;28;19920;-79
2022/04/24 10:03:08;;;;;;;;;;;19.60;45.70;;;;;;5074784;28;19984;-81
2022/04/24 10:05:34;;;;;;;;;;;19.60;45.70;;;;;;5074622;28;20384;-77
2022/04/24 10:08:01;;;;;;;;;;;19.50;45.50;;;;;;5065560;28;19920;-76
2022/04/24 10:10:27;;;;;;;;;;;19.60;45.60;;;;;;5052945;28;19919;-77
2022/04/24 10:12:53;;;;;;;;;;;19.60;45.70;;;;;;5052918;28;20311;-76
2022/04/24 10:15:20;;;;;;;;;;;19.60;45.50;;;;;;5059600;28;19921;-76
2022/04/24 10:17:45;;;;;;;;;;;19.60;45.50;;;;;;5074340;28;19962;-76
2022/04/24 10:20:18;;;;;;;;;;;19.60;45.40;;;;;;5073850;28;19913;-76
2022/04/24 10:22:47;;;;;;;;;;;19.60;45.40;;;;;;5073765;28;19962;-76
2022/04/24 10:25:15;;;;;;;;;;;19.70;45.50;;;;;;5063071;28;19909;-78
2022/04/24 10:27:43;;;;;;;;;;;19.60;45.40;;;;;;5052344;28;19909;-76
2022/04/24 10:30:23;;;;;;;;;;;19.70;45.40;;;;;;5053105;28;20367;-76
2022/04/24 10:32:49;;;;;;;;;;;19.80;45.30;;;;;;5062982;28;19916;-78
2022/04/24 10:35:16;;;;;;;;;;;19.80;45.20;;;;;;5073621;28;19974;-76
2022/04/24 10:37:42;;;;;;;;;;;19.90;45.10;;;;;;5074336;28;20360;-74
2022/04/24 10:40:12;;;;;;;;;;;19.90;45.30;;;;;;5072683;28;19981;-75
2022/04/24 10:42:38;;;;;;;;;;;19.90;46.20;;;;;;5059101;28;20346;-77
2022/04/24 10:45:08;;;;;;;;;;;19.90;46.40;;;;;;5053200;28;20284;-75
2022/04/24 10:47:46;;;;;;;;;;;20.00;46.80;;;;;;5053610;28;20288;-75
2022/04/24 10:50:12;;;;;;;;;;;20.00;46.80;;;;;;5064202;28;19958;-74
2022/04/24 10:52:48;;;;;;;;;;;20.00;46.80;;;;;;5072991;28;20003;-76
2022/04/24 10:55:15;;;;;;;;;;;20.10;46.90;;;;;;5071781;28;19920;-76
2022/04/24 10:57:44;;;;;;;;;;;20.10;47.00;;;;;;5071888;28;20005;-75
2022/04/24 11:00:13;;;;;;;;;;;20.20;46.90;;;;;;5053938;28;19962;-75
2022/04/24 11:02:39;;;;;;;;;;;20.20;46.40;;;;;;5053065;28;19971;-75
2022/04/24 11:05:06;;;;;;;;;;;20.20;46.20;;;;;;5053321;28;20527;-76
2022/04/24 11:07:33;;;;;;;;;;;20.20;46.10;;;;;;5060234;28;19913;-74
2022/04/24 11:10:03;;;;;;;;;;;20.20;45.80;;;;;;5071915;28;19916;-75
2022/04/24 11:12:31;;;;;;;;;;;20.20;45.60;;;;;;5072745;28;19975;-75
2022/04/24 11:15:00;;;;;;;;;;;20.20;45.50;;;;;;5072177;28;19908;-74
2022/04/24 11:17:27;;;;;;;;;;;20.20;45.40;;;;;;5059210;28;19975;-75
2022/04/24 11:19:58;;;;;;;;;;;20.20;45.30;;;;;;5072350;28;19920;-75
2022/04/24 11:22:24;;;;;;;;;;;20.20;45.30;;;;;;5071609;28;19912;-75
2022/04/24 11:24:53;;;;;;;;;;;20.20;45.10;;;;;;5072618;28;19966;-75
2022/04/24 11:27:18;;;;;;;;;;;20.20;45.00;;;;;;5072709;28;19913;-75
2022/04/24 11:29:44;;;;;;;;;;;20.30;44.90;;;;;;5066183;28;19959;-75
2022/04/24 11:32:12;;;;;;;;;;;20.30;44.70;;;;;;5051267;28;20288;-77
2022/04/24 11:34:38;;;;;;;;;;;20.30;44.70;;;;;;5052441;28;19908;-75
2022/04/24 11:37:04;;;;;;;;;;;20.30;44.60;;;;;;5052311;28;19913;-75
2022/04/24 11:39:30;;;;;;;;;;;20.30;44.50;;;;;;5051951;28;19916;-75
2022/04/24 11:41:56;;;;;;;;;;;20.40;44.60;;;;;;5052191;28;19909;-75
2022/04/24 11:50:13;;;;;;;;;;;20.30;44.40;;;;;;5063578;28;19924;-77
2022/04/24 11:52:39;;;;;;;;;;;20.40;44.30;;;;;;5063844;28;20203;-75
2022/04/24 11:55:06;;;;;;;;;;;20.40;44.20;;;;;;5071827;28;19924;-75
2022/04/24 11:57:33;;;;;;;;;;;20.50;44.10;;;;;;5071837;28;19942;-75
2022/04/24 11:59:59;;;;;;;;;;;20.50;44.00;;;;;;5069874;28;20344;-75
2022/04/24 12:02:28;;;;;;;;;;;20.50;43.80;;;;;;5072326;28;20356;-75
2022/04/24 12:04:55;;;;;;;;;;;20.60;43.70;;;;;;5071506;28;20402;-75
2022/04/24 12:07:28;;;;;;;;;;;20.60;43.70;;;;;;5059842;28;20336;-75
2022/04/24 12:10:12;;;;;;;;;;;20.60;43.70;;;;;;5047172;28;19948;-75
2022/04/24 12:12:47;;;;;;;;;;;20.60;43.70;;;;;;5035670;28;20007;-76
2022/04/24 12:15:15;;;;;;;;;;;20.60;43.70;;;;;;5049105;28;19913;-75
2022/04/24 12:17:51;;;;;;;;;;;20.60;43.70;;;;;;5042835;28;19951;-75
2022/04/24 12:20:17;;;;;;;;;;;20.60;43.70;;;;;;5056173;28;19919;-77
2022/04/24 12:22:43;;;;;;;;;;;20.60;43.60;;;;;;5048713;28;19913;-77
2022/04/24 12:25:10;;;;;;;;;;;20.60;43.60;;;;;;5047382;28;20007;-77
2022/04/24 12:27:36;;;;;;;;;;;20.60;43.60;;;;;;5044705;28;20330;-76
2022/04/24 12:30:03;;;;;;;;;;;20.60;43.60;;;;;;5045459;28;19915;-77
2022/04/24 12:32:29;;;;;;;;;;;20.60;43.50;;;;;;5042565;28;19913;-77
2022/04/24 12:34:55;;;;;;;;;;;20.60;43.50;;;;;;5044003;28;19924;-77
2022/04/24 12:37:28;;;;;;;;;;;20.60;43.50;;;;;;5052949;28;19917;-77
2022/04/24 12:39:53;;;;;;;;;;;20.60;43.50;;;;;;5044454;28;19919;-77
2022/04/24 12:42:20;;;;;;;;;;;20.60;43.40;;;;;;5040008;28;19913;-77
2022/04/24 12:44:46;;;;;;;;;;;20.70;43.30;;;;;;5043101;28;19913;-77
2022/04/24 12:47:13;;;;;;;;;;;20.70;43.20;;;;;;5038044;28;19909;-75
2022/04/24 12:49:40;;;;;;;;;;;20.80;43.10;;;;;;5039283;28;19983;-75
2022/04/24 12:52:06;;;;;;;;;;;20.90;43.00;;;;;;5047911;28;19920;-75
2022/04/24 12:54:32;;;;;;;;;;;20.90;42.80;;;;;;5040357;28;19921;-75
2022/04/24 12:56:58;;;;;;;;;;;21.00;42.70;;;;;;5045331;28;19959;-75
2022/04/24 12:59:23;;;;;;;;;;;21.10;42.50;;;;;;5040170;28;19909;-76
2022/04/24 13:01:50;;;;;;;;;;;21.10;42.50;;;;;;5054135;28;19917;-77
2022/04/24 13:04:15;;;;;;;;;;;21.10;42.50;;;;;;5050568;28;19909;-77
2022/04/24 13:06:41;;;;;;;;;;;21.00;42.50;;;;;;5055974;28;19909;-76
2022/04/24 13:09:07;;;;;;;;;;;21.00;42.60;;;;;;5061764;28;20003;-77
2022/04/24 13:11:33;;;;;;;;;;;20.90;42.70;;;;;;5060916;28;20334;-77
2022/04/24 13:13:59;;;;;;;;;;;21.00;43.50;;;;;;5055886;28;19909;-77
2022/04/24 13:19:12;;;;;;;;;;;20.70;42.60;;;;;;5056200;28;19920;-77
2022/04/24 13:21:38;;;;;;;;;;;20.90;42.80;;;;;;5057735;28;20380;-77
2022/04/24 13:24:04;;;;;;;;;;;20.80;42.80;;;;;;5075543;28;19991;-77
2022/04/24 13:26:30;;;;;;;;;;;20.70;42.80;;;;;;5075463;28;20432;-77
2022/04/24 13:28:55;;;;;;;;;;;20.70;43.00;;;;;;5074772;28;20395;-77
2022/04/24 13:31:20;;;;;;;;;;;20.60;43.00;;;;;;5071551;28;20369;-77
2022/04/24 13:33:46;;;;;;;;;;;20.70;43.20;;;;;;5055583;28;19912;-77
2022/04/24 13:36:13;;;;;;;;;;;20.70;43.30;;;;;;5070999;28;20264;-77
2022/04/24 13:38:39;;;;;;;;;;;20.60;43.20;;;;;;5074311;28;20489;-77
2022/04/24 13:41:05;;;;;;;;;;;20.60;43.10;;;;;;5074863;28;19951;-76
2022/04/24 13:43:34;;;;;;;;;;;20.40;42.90;;;;;;5065033;28;19913;-77
2022/04/24 13:46:01;;;;;;;;;;;20.60;43.10;;;;;;5074589;28;20334;-77
2022/04/24 13:48:27;;;;;;;;;;;20.60;43.00;;;;;;5069919;28;19919;-77
2022/04/24 13:50:56;;;;;;;;;;;20.60;43.00;;;;;;5068704;28;19913;-77
2022/04/24 13:53:22;;;;;;;;;;;20.60;43.00;;;;;;5074404;28;19924;-77
2022/04/24 13:55:47;;;;;;;;;;;20.70;43.00;;;;;;5074778;28;19916;-77
2022/04/24 13:58:14;;;;;;;;;;;20.60;43.00;;;;;;5074870;28;20329;-77
2022/04/24 14:00:41;;;;;;;;;;;20.60;43.00;;;;;;5073076;28;20291;-77
2022/04/24 14:03:08;;;;;;;;;;;20.50;43.00;;;;;;5074199;28;19920;-77
2022/04/24 14:05:34;;;;;;;;;;;20.50;43.20;;;;;;5068955;28;19909;-77
2022/04/24 14:08:00;;;;;;;;;;;20.50;43.20;;;;;;5056554;28;19916;-78
2022/04/24 14:10:25;;;;;;;;;;;20.40;43.30;;;;;;5051859;28;19912;-77
2022/04/24 14:12:51;;;;;;;;;;;20.30;43.20;;;;;;5067251;28;19966;-77
2022/04/24 14:15:25;;;;;;;;;;;20.40;43.40;;;;;;5073062;28;19909;-77
2022/04/24 14:17:55;;;;;;;;;;;20.40;43.50;;;;;;5054575;28;20384;-76
2022/04/24 14:20:24;;;;;;;;;;;20.30;43.40;;;;;;5058150;28;20008;-77
2022/04/24 14:22:49;;;;;;;;;;;20.30;44.50;;;;;;5054335;28;20375;-76